Time;durP1;ratioP1;P1;durP2;ratioP2;P2;SDS_P1;SDS_P2;PMS_P1;PMS_P2;Temp;Humidity;BMP_temperature;BMP_pressure;BME280_temperature;BME280_humidity;BME280_pressure;Samples;Min_cycle;Max_cycle;Signal;HPM_P1;HPM_P2
2023/06/10 00:01:47;;;;;;;;;14.67;13.33;;;;;28.18;52.26;100608.75;5070606;28;45387;-76
2023/06/10 00:04:14;;;;;;;;;15.00;15.00;;;;;28.14;52.38;100602.66;5071438;28;48681;-76
2023/06/10 00:06:40;;;;;;;;;16.00;13.67;;;;;28.13;52.48;100603.63;5069926;28;47354;-75
2023/06/10 00:09:09;;;;;;;;;17.67;14.33;;;;;28.12;52.51;100604.56;5075776;28;45817;-75
2023/06/10 00:11:36;;;;;;;;;18.33;17.67;;;;;28.10;52.87;100592.97;5072097;28;45462;-76
2023/06/10 00:14:01;;;;;;;;;28.00;24.33;;;;;28.07;52.82;100604.03;5067519;28;46385;-76
2023/06/10 00:16:26;;;;;;;;;26.00;23.00;;;;;28.06;52.97;100606.84;5073478;28;51511;-76
2023/06/10 00:18:52;;;;;;;;;24.00;23.00;;;;;28.02;53.27;100606.19;5074113;28;46033;-77
2023/06/10 00:21:19;;;;;;;;;19.67;19.67;;;;;27.99;53.08;100610.94;5073288;28;45468;-75
2023/06/10 00:23:44;;;;;;;;;22.33;22.33;;;;;27.95;53.56;100615.69;5074989;28;45535;-75
2023/06/10 00:26:10;;;;;;;;;15.00;14.00;;;;;27.92;53.54;100616.75;5073373;28;45565;-75
2023/06/10 00:28:35;;;;;;;;;11.00;11.00;;;;;27.89;53.64;100611.53;5074320;28;67398;-74
2023/06/10 00:31:01;;;;;;;;;12.00;10.00;;;;;27.88;53.57;100607.06;5068437;28;45491;-74
2023/06/10 00:33:26;;;;;;;;;12.00;11.00;;;;;27.88;53.70;100615.22;5075443;28;45596;-76
2023/06/10 00:35:51;;;;;;;;;11.33;9.00;;;;;27.88;53.60;100609.78;5073019;28;67858;-75
2023/06/10 00:38:17;;;;;;;;;7.67;7.67;;;;;27.90;53.49;100615.09;5070543;28;45412;-76
2023/06/10 00:40:42;;;;;;;;;8.00;7.00;;;;;27.92;53.29;100614.03;5067889;28;66342;-75
2023/06/10 00:43:08;;;;;;;;;9.00;6.33;;;;;27.92;53.55;100614.03;5071892;28;45813;-75
2023/06/10 00:45:33;;;;;;;;;6.67;6.67;;;;;27.92;53.25;100622.19;5071565;28;46190;-75
2023/06/10 00:47:59;;;;;;;;;8.00;8.00;;;;;27.93;53.06;100623.94;5068903;28;45823;-76
2023/06/10 00:50:25;;;;;;;;;6.00;6.00;;;;;27.96;52.59;100630.97;5073375;28;45467;-75
2023/06/10 00:52:51;;;;;;;;;7.00;7.00;;;;;27.97;52.62;100624.59;5069599;28;61238;-75
2023/06/10 00:55:17;;;;;;;;;6.33;6.33;;;;;27.97;52.83;100635.47;5074528;28;45669;-75
2023/06/10 00:57:44;;;;;;;;;6.00;6.00;;;;;27.98;52.84;100633.63;5072179;28;45529;-75
2023/06/10 01:00:10;;;;;;;;;8.67;7.00;;;;;27.99;52.74;100630.81;5074280;28;45536;-75
2023/06/10 01:02:36;;;;;;;;;7.00;7.00;;;;;27.98;52.62;100629.06;5074681;28;45595;-75
2023/06/10 01:05:01;;;;;;;;;7.33;7.33;;;;;27.98;52.68;100631.78;5074752;28;47216;-75
2023/06/10 01:07:41;;;;;;;;;9.00;6.00;;;;;27.97;52.95;100626.47;5067925;28;45994;-75
2023/06/10 01:10:12;;;;;;;;;6.33;6.33;;;;;27.96;53.15;100630.97;5049134;28;45930;-75
2023/06/10 01:12:48;;;;;;;;;8.00;8.00;;;;;27.92;53.24;100633.03;5074559;28;45424;-75
2023/06/10 01:15:17;;;;;;;;;6.67;6.67;;;;;27.89;53.71;100629.66;5070579;28;47636;-75
2023/06/10 01:17:55;;;;;;;;;7.00;7.00;;;;;27.87;54.05;100631.59;5071053;28;45435;-75
2023/06/10 01:20:20;;;;;;;;;7.00;5.33;;;;;27.84;54.39;100632.66;5069713;28;45627;-75
2023/06/10 01:22:47;;;;;;;;;7.00;5.33;;;;;27.84;54.85;100634.50;5070727;28;46779;-75
2023/06/10 01:25:13;;;;;;;;;8.67;6.67;;;;;27.80;54.57;100631.09;5065060;28;47680;-76
2023/06/10 01:27:40;;;;;;;;;7.00;7.00;;;;;27.77;54.80;100633.16;5073436;28;45600;-74
2023/06/10 01:30:13;;;;;;;;;9.00;6.00;;;;;27.75;54.98;100635.97;5048891;28;62764;-75
2023/06/10 01:32:44;;;;;;;;;7.67;7.33;;;;;27.72;55.41;100627.16;5072055;28;45632;-74
2023/06/10 01:35:11;;;;;;;;;7.33;7.33;;;;;27.69;55.92;100631.75;5070238;28;47409;-75
2023/06/10 01:37:39;;;;;;;;;9.00;7.00;;;;;27.67;55.54;100630.13;5073741;28;45487;-75
2023/06/10 01:40:05;;;;;;;;;19.50;19.00;;;;;27.64;55.75;100633.00;5074278;28;45417;-75
2023/06/10 01:42:32;;;;;;;;;8.00;7.00;;;;;27.61;56.57;100631.38;5071011;28;45651;-76
2023/06/10 01:44:58;;;;;;;;;7.00;7.00;;;;;27.61;56.47;100635.94;5071409;28;46644;-76
2023/06/10 01:47:23;;;;;;;;;8.67;8.67;;;;;27.60;56.39;100639.63;5070660;28;45494;-75
2023/06/10 01:49:49;;;;;;;;;9.67;7.00;;;;;27.56;57.02;100640.78;5073731;28;45343;-74
2023/06/10 01:52:14;;;;;;;;;12.00;8.00;;;;;27.54;57.11;100638.16;5064649;28;55389;-76
2023/06/10 01:54:39;;;;;;;;;9.00;6.00;;;;;27.56;57.16;100638.94;5071539;28;47095;-76
2023/06/10 01:57:06;;;;;;;;;7.00;7.00;;;;;27.52;57.73;100642.81;5067433;28;45601;-77
2023/06/10 01:59:31;;;;;;;;;7.00;7.00;;;;;27.52;57.62;100648.22;5067983;28;45537;-76
2023/06/10 02:01:56;;;;;;;;;7.00;7.00;;;;;27.51;58.19;100651.03;5073982;28;45468;-76
2023/06/10 02:04:22;;;;;;;;;9.00;9.00;;;;;27.49;57.83;100648.44;5063578;28;67537;-75
2023/06/10 02:06:48;;;;;;;;;7.00;7.00;;;;;27.46;58.21;100648.63;5069462;28;45348;-75
2023/06/10 02:09:13;;;;;;;;;9.00;8.00;;;;;27.45;58.49;100651.44;5073940;28;45390;-74
2023/06/10 02:11:39;;;;;;;;;8.00;7.00;;;;;27.44;58.96;100655.97;5073848;28;45363;-76
2023/06/10 02:14:04;;;;;;;;;9.00;7.33;;;;;27.42;58.97;100647.91;5071522;28;70327;-76
2023/06/10 02:16:30;;;;;;;;;9.00;9.00;;;;;27.40;59.17;100652.56;5072720;28;68817;-74
2023/06/10 02:18:56;;;;;;;;;10.00;7.00;;;;;27.39;58.96;100648.13;5073376;28;45419;-75
2023/06/10 02:21:21;;;;;;;;;5.33;5.33;;;;;27.36;59.08;100650.16;5073795;28;45409;-75
2023/06/10 02:23:47;;;;;;;;;6.67;6.00;;;;;27.35;59.10;100648.41;5065995;28;67535;-77
2023/06/10 02:26:12;;;;;;;;;8.00;7.00;;;;;27.32;59.45;100643.16;5073297;28;45498;-76
2023/06/10 02:28:37;;;;;;;;;8.00;6.33;;;;;27.29;59.71;100646.09;5060899;28;45474;-75
2023/06/10 02:31:03;;;;;;;;;6.00;6.00;;;;;27.26;59.57;100647.13;5068571;28;59953;-75
2023/06/10 02:33:28;;;;;;;;;10.00;7.00;;;;;27.24;60.09;100646.34;5068211;28;46664;-75
2023/06/10 02:35:55;;;;;;;;;10.00;7.00;;;;;27.20;60.15;100643.94;5070079;28;45525;-74
2023/06/10 02:38:20;;;;;;;;;7.67;6.33;;;;;27.19;60.14;100644.91;5066668;28;45539;-75
2023/06/10 02:40:46;;;;;;;;;6.67;6.67;;;;;27.16;60.98;100654.06;5069530;28;45958;-75
2023/06/10 02:43:11;;;;;;;;;7.00;7.00;;;;;27.14;60.96;100650.59;5068194;28;66492;-76
2023/06/10 02:45:36;;;;;;;;;6.33;6.33;;;;;27.11;61.51;100646.25;5070709;28;45616;-75
2023/06/10 02:48:02;;;;;;;;;6.00;6.00;;;;;27.10;60.81;100654.44;5072739;28;63919;-75
2023/06/10 02:50:27;;;;;;;;;5.67;5.67;;;;;27.09;61.79;100658.13;5071922;28;57274;-75
2023/06/10 02:52:52;;;;;;;;;7.00;6.00;;;;;27.06;61.26;100661.88;5068179;28;67746;-76
2023/06/10 02:55:17;;;;;;;;;7.33;6.00;;;;;27.04;61.79;100663.78;5070477;28;60080;-75
2023/06/10 02:57:43;;;;;;;;;7.00;7.00;;;;;27.01;62.23;100660.41;5068492;28;51415;-75
2023/06/10 03:00:10;;;;;;;;;7.33;6.00;;;;;26.98;62.35;100656.03;5066577;28;59255;-77
2023/06/10 03:02:37;;;;;;;;;6.00;5.67;;;;;26.91;62.72;100657.38;5070977;28;46761;-76
2023/06/10 03:05:03;;;;;;;;;7.00;5.00;;;;;26.87;62.84;100658.53;5072762;28;45451;-75
2023/06/10 03:07:28;;;;;;;;;5.33;5.00;;;;;26.82;62.72;100663.34;5069137;28;45474;-75
2023/06/10 03:09:53;;;;;;;;;8.00;6.67;;;;;26.76;63.06;100658.28;5072191;28;59932;-78
2023/06/10 03:12:18;;;;;;;;;7.33;7.33;;;;;26.72;62.85;100656.72;5069360;28;67203;-75
2023/06/10 03:14:44;;;;;;;;;5.67;5.67;;;;;26.66;63.17;100655.25;5071811;28;63851;-75
2023/06/10 03:17:09;;;;;;;;;6.33;6.33;;;;;26.61;63.43;100655.50;5069545;28;64874;-76
2023/06/10 03:19:37;;;;;;;;;7.00;5.33;;;;;26.57;64.27;100659.34;5072836;28;45507;-75
2023/06/10 03:22:13;;;;;;;;;6.00;6.00;;;;;26.51;64.51;100659.72;5072240;28;45942;-76
2023/06/10 03:24:40;;;;;;;;;10.67;7.00;;;;;26.47;64.55;100663.56;5072030;28;45851;-75
2023/06/10 03:27:09;;;;;;;;;7.00;6.00;;;;;26.43;64.77;100667.41;5072216;28;45422;-75
2023/06/10 03:29:35;;;;;;;;;7.00;6.33;;;;;26.39;65.20;100671.22;5070593;28;45531;-75
2023/06/10 03:32:00;;;;;;;;;6.00;6.00;;;;;26.36;65.10;100668.69;5072199;28;47376;-76
2023/06/10 03:34:25;;;;;;;;;6.00;6.00;;;;;26.33;65.66;100671.59;5063358;28;45423;-79
2023/06/10 03:36:51;;;;;;;;;7.33;6.67;;;;;26.30;65.64;100667.19;5069329;28;57070;-77
2023/06/10 03:39:16;;;;;;;;;6.00;6.00;;;;;26.27;66.31;100674.63;5069656;28;64770;-76
2023/06/10 03:41:41;;;;;;;;;6.00;6.00;;;;;26.24;66.08;100669.38;5069472;28;71886;-76
2023/06/10 03:44:07;;;;;;;;;5.00;5.00;;;;;26.22;66.33;100671.31;5070381;28;67132;-76
2023/06/10 03:46:32;;;;;;;;;8.67;7.00;;;;;26.20;66.54;100674.09;5071705;28;65384;-75
2023/06/10 03:49:00;;;;;;;;;6.00;4.67;;;;;26.17;67.56;100673.41;5069906;28;45529;-75
2023/06/10 03:51:26;;;;;;;;;6.00;6.00;;;;;26.15;67.69;100673.47;5069586;28;47450;-76
2023/06/10 03:53:51;;;;;;;;;5.67;5.67;;;;;26.10;67.88;100664.78;5067878;28;45461;-76
2023/06/10 03:56:16;;;;;;;;;8.00;6.67;;;;;26.09;68.38;100666.56;5072116;28;45510;-77
2023/06/10 03:58:42;;;;;;;;;8.00;6.67;;;;;26.07;67.87;100673.91;5068909;28;59471;-76
2023/06/10 04:01:07;;;;;;;;;6.00;4.33;;;;;26.06;68.83;100682.13;5070689;28;70714;-75
2023/06/10 04:03:33;;;;;;;;;8.00;7.00;;;;;26.04;69.01;100681.31;5068827;28;45419;-75
2023/06/10 04:05:58;;;;;;;;;7.00;7.00;;;;;26.01;68.87;100679.69;5069915;28;45494;-75
2023/06/10 04:08:23;;;;;;;;;5.67;5.67;;;;;25.99;69.31;100681.56;5064871;28;45435;-76
2023/06/10 04:10:49;;;;;;;;;8.00;8.00;;;;;25.99;68.87;100686.13;5071406;28;46249;-76
2023/06/10 04:13:14;;;;;;;;;5.00;5.00;;;;;25.96;69.38;100684.47;5067800;28;45558;-76
2023/06/10 04:15:40;;;;;;;;;9.67;8.00;;;;;25.95;70.03;100688.16;5072039;28;45521;-76
2023/06/10 04:18:06;;;;;;;;;7.00;6.00;;;;;25.92;70.14;100688.28;5050379;28;45484;-76
2023/06/10 04:20:32;;;;;;;;;5.00;5.00;;;;;25.92;70.49;100690.13;5050067;28;71372;-77
2023/06/10 04:22:57;;;;;;;;;7.00;7.00;;;;;25.90;70.28;100687.53;5050408;28;45501;-76
2023/06/10 04:25:24;;;;;;;;;8.33;7.33;;;;;25.88;71.04;100694.81;5046740;28;45449;-75
2023/06/10 04:27:49;;;;;;;;;6.33;6.33;;;;;25.88;70.21;100697.53;5050147;28;45643;-77
2023/06/10 04:30:16;;;;;;;;;7.33;7.00;;;;;25.87;70.35;100695.78;5047288;28;45670;-75
2023/06/10 04:32:41;;;;;;;;;6.33;6.33;;;;;25.89;70.13;100695.69;5050034;28;45462;-76
2023/06/10 04:35:07;;;;;;;;;6.00;6.00;;;;;25.87;70.10;100695.78;5046877;28;50906;-76
2023/06/10 04:37:32;;;;;;;;;8.00;6.00;;;;;25.87;69.87;100701.19;5051274;28;45542;-75
2023/06/10 04:39:59;;;;;;;;;5.00;5.00;;;;;25.84;69.98;100706.78;5050819;28;51040;-76
2023/06/10 04:42:24;;;;;;;;;5.00;5.00;;;;;25.84;69.80;100712.22;5050804;28;46279;-75
2023/06/10 04:44:49;;;;;;;;;4.67;4.67;;;;;25.82;69.85;100712.28;5049521;28;47223;-75
2023/06/10 04:47:17;;;;;;;;;4.00;4.00;;;;;25.80;70.59;100708.78;5051199;28;47022;-76
2023/06/10 04:49:42;;;;;;;;;7.00;5.33;;;;;25.80;70.37;100716.91;5050143;28;47403;-76
2023/06/10 04:52:07;;;;;;;;;5.00;5.00;;;;;25.81;70.44;100717.78;5049698;28;45493;-76
2023/06/10 04:54:33;;;;;;;;;7.33;5.00;;;;;25.80;70.45;100718.72;5052043;28;45526;-75
2023/06/10 04:56:59;;;;;;;;;6.00;4.00;;;;;25.79;70.00;100720.56;5052996;28;45556;-75
2023/06/10 04:59:24;;;;;;;;;5.33;5.33;;;;;25.78;69.87;100715.22;5053099;28;45719;-75
2023/06/10 05:01:50;;;;;;;;;5.00;5.00;;;;;25.78;70.18;100721.53;5049685;28;45863;-75
2023/06/10 05:04:15;;;;;;;;;7.00;5.00;;;;;25.78;70.02;100721.53;5053018;28;64517;-75
2023/06/10 05:06:40;;;;;;;;;7.33;6.00;;;;;25.77;70.72;100717.06;5051504;28;60453;-76
2023/06/10 05:09:05;;;;;;;;;6.00;5.00;;;;;25.79;70.73;100723.28;5053330;28;45620;-75
2023/06/10 05:11:31;;;;;;;;;4.00;4.00;;;;;25.78;70.57;100728.75;5051584;28;69894;-76
2023/06/10 05:13:56;;;;;;;;;5.33;4.33;;;;;25.78;70.40;100726.03;5053641;28;45523;-75
2023/06/10 05:16:22;;;;;;;;;7.00;7.00;;;;;25.76;71.01;100726.13;5057620;28;46030;-75
2023/06/10 05:18:47;;;;;;;;;5.00;4.00;;;;;25.75;71.05;100724.38;5072518;28;71072;-76
2023/06/10 05:21:12;;;;;;;;;5.33;5.33;;;;;25.77;71.26;100727.88;5072196;28;45487;-76
2023/06/10 05:23:38;;;;;;;;;5.67;5.67;;;;;25.77;70.77;100729.69;5073557;28;57766;-77
2023/06/10 05:26:03;;;;;;;;;7.67;6.33;;;;;25.77;71.53;100724.28;5070953;28;45561;-77
2023/06/10 05:28:28;;;;;;;;;5.00;5.00;;;;;25.77;71.08;100727.88;5069901;28;68780;-76
2023/06/10 05:30:54;;;;;;;;;6.33;6.33;;;;;25.77;70.82;100727.88;5072258;28;45930;-75
2023/06/10 05:33:19;;;;;;;;;6.00;6.00;;;;;25.77;71.38;100730.56;5070110;28;45603;-76
2023/06/10 05:35:44;;;;;;;;;5.67;5.00;;;;;25.78;71.50;100732.34;5067313;28;45578;-75
2023/06/10 05:38:10;;;;;;;;;5.00;5.00;;;;;25.78;71.51;100737.75;5071492;28;66314;-76
2023/06/10 05:40:35;;;;;;;;;7.00;5.67;;;;;25.80;72.02;100740.38;5067040;28;63581;-75
2023/06/10 05:43:00;;;;;;;;;5.67;5.67;;;;;25.79;72.30;100736.78;5072421;28;63087;-78
2023/06/10 05:45:27;;;;;;;;;8.67;7.00;;;;;25.79;71.72;100734.09;5071793;28;59863;-76
2023/06/10 05:47:52;;;;;;;;;5.67;5.67;;;;;25.81;72.21;100737.56;5069054;28;46449;-76
2023/06/10 05:50:17;;;;;;;;;6.00;5.00;;;;;25.84;71.69;100739.25;5069276;28;67814;-76
2023/06/10 05:52:43;;;;;;;;;8.67;6.00;;;;;25.86;72.13;100740.91;5070894;27;45512;-76
2023/06/10 05:55:09;;;;;;;;;6.33;6.00;;;;;25.84;71.80;100734.72;5072532;28;45445;-76
2023/06/10 05:57:34;;;;;;;;;5.67;5.67;;;;;25.86;71.90;100738.19;5071349;28;46179;-76
2023/06/10 06:00:00;;;;;;;;;9.67;6.00;;;;;25.88;71.92;100743.53;5070656;28;45425;-76
2023/06/10 06:02:25;;;;;;;;;6.00;6.00;;;;;25.91;72.30;100747.91;5068965;28;59227;-76
2023/06/10 06:04:50;;;;;;;;;6.00;6.00;;;;;25.92;72.14;100746.94;5072831;28;45414;-76
2023/06/10 06:07:16;;;;;;;;;7.00;5.33;;;;;25.91;72.79;100743.38;5067515;28;67964;-77
2023/06/10 06:09:41;;;;;;;;;6.00;5.00;;;;;25.94;73.12;100748.63;5069710;28;57222;-76
2023/06/10 06:12:07;;;;;;;;;8.00;6.67;;;;;25.95;73.12;100744.09;5069503;28;45944;-76
2023/06/10 06:14:37;;;;;;;;;6.33;5.00;;;;;25.96;73.27;100749.41;5070728;28;45384;-78
2023/06/10 06:17:02;;;;;;;;;6.00;6.00;;;;;25.98;72.89;100755.59;5071651;28;47462;-78
2023/06/10 06:19:27;;;;;;;;;5.67;5.67;;;;;25.99;72.75;100751.06;5071712;28;45437;-77
2023/06/10 06:21:53;;;;;;;;;7.33;7.00;;;;;26.00;73.85;100753.69;5072366;28;45401;-76
2023/06/10 06:24:18;;;;;;;;;6.00;6.00;;;;;26.02;73.00;100754.47;5068838;28;58034;-77
2023/06/10 06:26:43;;;;;;;;;9.00;6.00;;;;;26.01;73.96;100752.75;5070936;28;62024;-76
2023/06/10 06:29:09;;;;;;;;;7.33;6.33;;;;;26.04;73.21;100757.97;5071797;28;67517;-77
2023/06/10 06:31:34;;;;;;;;;6.00;5.00;;;;;26.04;74.27;100755.25;5071174;28;46034;-76
2023/06/10 06:33:59;;;;;;;;;6.00;6.00;;;;;26.06;74.29;100760.59;5070183;28;45470;-76
2023/06/10 06:36:25;;;;;;;;;7.33;5.67;;;;;26.07;74.52;100756.94;5072124;28;59077;-77
2023/06/10 06:38:50;;;;;;;;;6.00;5.00;;;;;26.07;74.80;100765.94;5071639;28;66966;-79
2023/06/10 06:41:15;;;;;;;;;6.33;5.33;;;;;26.10;74.36;100764.91;5071410;28;45512;-76
2023/06/10 06:43:42;;;;;;;;;6.00;6.00;;;;;26.10;74.41;100754.09;5071011;28;63198;-77
2023/06/10 06:46:07;;;;;;;;;6.33;6.33;;;;;26.13;75.23;100771.00;5068142;28;46389;-76
2023/06/10 06:48:32;;;;;;;;;6.00;6.00;;;;;26.11;75.48;100762.09;5069163;28;65905;-76
2023/06/10 06:50:58;;;;;;;;;7.00;7.00;;;;;26.15;75.37;100768.19;5071202;28;65185;-77
2023/06/10 06:53:23;;;;;;;;;6.00;6.00;;;;;26.18;75.14;100767.19;5068492;28;45489;-76
2023/06/10 06:55:49;;;;;;;;;8.67;6.00;;;;;26.19;76.01;100764.38;5071264;28;68422;-77
2023/06/10 06:58:14;;;;;;;;;5.33;5.33;;;;;26.20;76.02;100770.66;5068367;28;45447;-77
2023/06/10 07:00:39;;;;;;;;;6.67;5.33;;;;;26.22;76.13;100777.75;5069484;28;45393;-76
2023/06/10 07:03:05;;;;;;;;;7.67;5.33;;;;;26.24;76.04;100783.94;5068212;28;48563;-77
2023/06/10 07:05:30;;;;;;;;;5.00;5.00;;;;;26.27;75.83;100781.09;5072053;28;46435;-76
2023/06/10 07:07:56;;;;;;;;;9.67;5.33;;;;;26.28;76.40;100788.25;5070164;28;45607;-76
2023/06/10 07:10:23;;;;;;;;;6.00;6.00;;;;;26.31;76.52;100784.47;5072903;28;45598;-76
2023/06/10 07:12:48;;;;;;;;;6.67;6.33;;;;;26.31;76.63;100782.69;5071042;28;45501;-77
2023/06/10 07:15:13;;;;;;;;;7.00;5.33;;;;;26.35;76.82;100783.34;5067609;28;47461;-77
2023/06/10 07:17:39;;;;;;;;;5.33;5.33;;;;;26.38;76.70;100781.38;5052100;28;45728;-76
2023/06/10 07:20:05;;;;;;;;;5.33;5.33;;;;;26.43;76.25;100778.44;5052371;28;45582;-76
2023/06/10 07:22:30;;;;;;;;;8.33;6.00;;;;;26.51;76.81;100780.69;5051711;28;45673;-76
2023/06/10 07:24:56;;;;;;;;;6.00;6.00;;;;;26.56;76.70;100776.78;5047270;28;46344;-76
2023/06/10 07:27:21;;;;;;;;;6.33;6.33;;;;;26.62;76.64;100779.13;5049946;28;45513;-76
2023/06/10 07:29:46;;;;;;;;;6.33;5.67;;;;;26.67;76.65;100776.16;5046176;28;45366;-76
2023/06/10 07:32:12;;;;;;;;;7.00;5.00;;;;;26.72;77.10;100784.03;5051545;28;46466;-76
2023/06/10 07:34:37;;;;;;;;;7.00;6.00;;;;;26.74;77.32;100788.41;5050971;28;70952;-77
2023/06/10 07:37:02;;;;;;;;;5.00;5.00;;;;;26.74;76.91;100785.72;5047167;28;69065;-79
2023/06/10 07:39:28;;;;;;;;;6.00;5.00;;;;;26.77;77.31;100790.06;5051601;28;45490;-77
2023/06/10 07:41:55;;;;;;;;;5.00;5.00;;;;;26.78;77.60;100789.97;5052776;28;60181;-76
2023/06/10 07:44:20;;;;;;;;;4.33;4.33;;;;;26.80;77.82;100795.31;5051929;28;46584;-76
2023/06/10 07:46:46;;;;;;;;;5.33;5.00;;;;;26.83;77.39;100797.84;5050657;28;60599;-76
2023/06/10 07:49:11;;;;;;;;;5.00;5.00;;;;;26.82;77.54;100794.25;5051120;28;45769;-75
2023/06/10 07:51:36;;;;;;;;;7.00;5.33;;;;;26.82;77.24;100794.25;5050483;28;58324;-76
2023/06/10 07:54:02;;;;;;;;;6.00;6.00;;;;;26.82;77.67;100801.50;5050004;28;46378;-74
2023/06/10 07:56:27;;;;;;;;;12.33;5.00;;;;;26.82;77.98;100802.38;5050095;28;45491;-75
2023/06/10 07:58:53;;;;;;;;;5.00;5.00;;;;;26.85;77.79;100801.34;5048248;28;45863;-75
2023/06/10 08:01:18;;;;;;;;;3.67;3.67;;;;;26.85;78.04;100802.22;5027113;28;45496;-75
2023/06/10 08:03:43;;;;;;;;;5.00;5.00;;;;;26.88;78.09;100801.16;5045579;28;45564;-76
2023/06/10 08:06:11;;;;;;;;;5.33;5.33;;;;;26.90;77.88;100810.97;5044956;28;45525;-74
2023/06/10 08:08:41;;;;;;;;;7.67;6.33;;;;;26.94;78.19;100806.22;5045788;28;45586;-74
2023/06/10 08:11:07;;;;;;;;;5.00;5.00;;;;;26.96;77.81;100804.31;5047430;28;45557;-76
2023/06/10 08:13:32;;;;;;;;;5.00;5.00;;;;;27.00;77.27;100805.84;5043618;28;46077;-76
2023/06/10 08:18:33;;;;;;;;;6.33;4.33;;;;;27.06;77.07;100816.38;5004829;26;45475;-77
2023/06/10 08:20:59;;;;;;;;;7.00;5.33;;;;;27.10;77.32;100812.53;5027849;28;45368;-75
2023/06/10 08:23:24;;;;;;;;;5.00;4.00;;;;;27.12;77.00;100818.75;5031117;28;46222;-74
2023/06/10 08:25:50;;;;;;;;;6.00;4.67;;;;;27.14;77.26;100821.38;5027997;28;45481;-75
2023/06/10 08:28:16;;;;;;;;;7.00;5.00;;;;;27.15;76.96;100813.13;5029416;28;45376;-76
2023/06/10 08:30:41;;;;;;;;;4.00;4.00;;;;;27.19;77.02;100823.81;5029799;28;57554;-74
2023/06/10 08:33:06;;;;;;;;;5.00;5.00;;;;;27.21;76.63;100817.31;5034104;28;45753;-75
2023/06/10 08:35:32;;;;;;;;;6.00;6.00;;;;;27.23;76.42;100823.56;5029464;28;59509;-75
2023/06/10 08:37:57;;;;;;;;;7.00;5.00;;;;;27.24;76.41;100816.28;5030169;28;62847;-75
2023/06/10 08:40:23;;;;;;;;;6.00;5.33;;;;;27.28;76.15;100817.88;5030217;28;55601;-75
2023/06/10 08:42:58;;;;;;;;;6.00;4.00;;;;;27.29;76.17;100817.75;5031259;28;46383;-75
2023/06/10 08:45:24;;;;;;;;;5.00;5.00;;;;;27.31;76.08;100814.97;5029720;28;45565;-73
2023/06/10 08:47:53;;;;;;;;;5.00;5.00;;;;;27.34;76.31;100818.38;5029720;28;45706;-75
2023/06/10 08:50:18;;;;;;;;;5.67;5.67;;;;;27.36;76.56;100819.13;5030587;28;45650;-76
2023/06/10 08:52:45;;;;;;;;;9.00;6.67;;;;;27.41;75.58;100810.75;5030037;28;46014;-76
2023/06/10 08:55:15;;;;;;;;;7.33;6.00;;;;;27.44;75.89;100813.28;5029077;28;45439;-73
2023/06/10 08:57:42;;;;;;;;;5.00;5.00;;;;;27.49;76.18;100813.88;5029258;28;46923;-77
2023/06/10 09:00:08;;;;;;;;;5.00;5.00;;;;;27.53;75.54;100810.00;5030379;28;46326;-77
2023/06/10 09:02:35;;;;;;;;;8.00;8.00;;;;;27.58;75.34;100816.00;5029913;28;45458;-75
2023/06/10 09:05:01;;;;;;;;;5.33;5.33;;;;;27.61;75.98;100815.84;5013092;28;45528;-75
2023/06/10 09:07:26;;;;;;;;;5.00;5.00;;;;;27.64;75.36;100809.34;5013003;28;46764;-79
2023/06/10 09:09:53;;;;;;;;;7.33;6.33;;;;;27.66;75.34;100813.72;5012817;28;45502;-76
2023/06/10 09:12:19;;;;;;;;;7.00;5.00;;;;;27.69;75.21;100818.94;5031434;28;46568;-75
2023/06/10 09:14:44;;;;;;;;;5.00;5.00;;;;;27.73;74.62;100822.41;5031300;28;45459;-75
2023/06/10 09:17:10;;;;;;;;;5.00;4.67;;;;;27.75;75.17;100814.16;5028296;28;64244;-75
2023/06/10 09:19:36;;;;;;;;;4.33;4.33;;;;;27.77;75.08;100813.13;5031299;28;45459;-76
2023/06/10 09:22:02;;;;;;;;;7.00;7.00;;;;;27.79;75.10;100819.31;5032894;28;67320;-75
2023/06/10 09:24:27;;;;;;;;;5.00;3.33;;;;;27.84;74.61;100821.75;5030666;28;45598;-75
2023/06/10 09:27:07;;;;;;;;;7.67;6.00;;;;;27.86;74.50;100819.81;5030618;28;63122;-75
2023/06/10 09:29:45;;;;;;;;;3.33;3.33;;;;;27.88;74.69;100810.59;5028319;28;45582;-74
2023/06/10 09:32:11;;;;;;;;;8.00;4.67;;;;;27.93;74.50;100821.19;5028748;28;46496;-75
2023/06/10 09:34:36;;;;;;;;;4.00;4.00;;;;;27.95;74.00;100808.38;5030305;28;68584;-75
2023/06/10 09:37:02;;;;;;;;;6.33;3.33;;;;;28.01;74.64;100815.28;5030446;28;48669;-75
2023/06/10 09:39:27;;;;;;;;;4.67;4.67;;;;;28.03;74.49;100814.22;5033847;28;46002;-75
2023/06/10 09:41:52;;;;;;;;;4.00;4.00;;;;;28.07;74.48;100814.88;5028290;28;69346;-75
2023/06/10 09:44:20;;;;;;;;;6.00;4.00;;;;;28.10;73.60;100807.44;5031126;28;45424;-75
2023/06/10 09:46:50;;;;;;;;;4.00;4.00;;;;;28.15;73.83;100815.28;5031083;28;45544;-77
2023/06/10 09:49:16;;;;;;;;;4.00;4.00;;;;;28.19;72.99;100811.44;5031396;28;46260;-75
2023/06/10 09:51:52;;;;;;;;;5.00;5.00;;;;;28.25;73.46;100816.47;5029975;28;46398;-74
2023/06/10 09:54:18;;;;;;;;;5.33;5.00;;;;;28.29;72.40;100815.31;5026699;28;45519;-75
2023/06/10 09:56:47;;;;;;;;;5.00;5.00;;;;;28.35;72.39;100814.09;5030003;28;45961;-75
2023/06/10 09:59:12;;;;;;;;;7.67;6.33;;;;;28.40;71.98;100818.25;5029605;28;45654;-77
2023/06/10 10:01:37;;;;;;;;;3.00;3.00;;;;;28.45;71.39;100813.41;5029783;28;67726;-80
2023/06/10 10:04:03;;;;;;;;;5.00;5.00;;;;;28.52;71.11;100822.03;5030849;28;45418;-79
2023/06/10 10:06:30;;;;;;;;;5.00;5.00;;;;;28.62;70.52;100827.75;5015541;28;45516;-83
2023/06/10 10:08:55;;;;;;;;;4.33;4.00;;;;;28.67;69.74;100812.88;5007868;28;45851;-79
2023/06/10 10:11:22;;;;;;;;;4.67;4.67;;;;;28.76;70.71;100816.81;5029133;28;45910;-79
2023/06/10 10:13:49;;;;;;;;;6.33;6.33;;;;;28.87;69.54;100805.25;5026429;28;45543;-77
2023/06/10 10:16:17;;;;;;;;;5.00;5.00;;;;;28.94;67.84;100812.09;5028085;28;45478;-82
2023/06/10 10:18:46;;;;;;;;;5.00;5.00;;;;;29.01;67.54;100820.69;5010370;28;45516;-78
2023/06/10 10:21:13;;;;;;;;;6.00;4.33;;;;;29.05;67.91;100823.13;5011910;28;46629;-80
2023/06/10 10:23:52;;;;;;;;;5.00;5.00;;;;;29.11;67.76;100821.84;5029048;28;45767;-78
2023/06/10 10:26:18;;;;;;;;;6.67;5.00;;;;;29.12;67.30;100810.84;5030037;28;45438;-81
2023/06/10 10:28:51;;;;;;;;;4.33;4.00;;;;;29.15;67.56;100809.78;5028363;28;45928;-85
2023/06/10 10:31:19;;;;;;;;;6.00;6.00;;;;;29.15;67.79;100813.38;5022964;28;46088;-81
2023/06/10 10:34:01;;;;;;;;;6.00;6.00;;;;;29.14;67.90;100808.91;5012893;28;45526;-80
2023/06/10 10:36:27;;;;;;;;;6.00;5.00;;;;;29.16;67.71;100809.69;5029998;28;45933;-79
2023/06/10 10:38:53;;;;;;;;;6.00;6.00;;;;;29.21;68.23;100810.25;5030583;28;45935;-81
2023/06/10 10:41:19;;;;;;;;;6.67;6.33;;;;;29.27;66.61;100818.97;5017061;28;62645;-82
2023/06/10 10:43:45;;;;;;;;;7.33;6.33;;;;;29.29;64.89;100811.56;5028686;28;45510;-79
2023/06/10 10:46:15;;;;;;;;;7.00;7.00;;;;;29.32;65.17;100812.22;5012120;28;51886;-78
2023/06/10 10:48:41;;;;;;;;;6.33;6.33;;;;;29.38;64.46;100809.09;5029517;28;45490;-77
2023/06/10 10:51:07;;;;;;;;;6.00;6.00;;;;;29.47;64.42;100807.59;5033745;28;68659;-75
2023/06/10 10:53:33;;;;;;;;;3.33;3.33;;;;;29.54;63.59;100806.22;5026899;28;45843;-77
2023/06/10 10:56:12;;;;;;;;;8.00;5.33;;;;;29.61;63.43;100803.94;5028812;28;55622;-79
2023/06/10 10:58:38;;;;;;;;;6.00;5.67;;;;;29.66;63.51;100797.22;5012779;28;45794;-83
2023/06/10 11:01:17;;;;;;;;;5.00;5.00;;;;;29.74;63.02;100803.00;5026151;28;48769;-81
2023/06/10 11:03:49;;;;;;;;;5.00;3.67;;;;;29.81;61.97;100803.44;5027211;28;46381;-78
2023/06/10 11:06:16;;;;;;;;;10.67;10.67;;;;;29.89;62.23;100798.34;5029963;28;45494;-77
2023/06/10 11:08:41;;;;;;;;;6.67;5.00;;;;;29.97;61.36;100797.78;5027136;28;45817;-77
2023/06/10 11:11:18;;;;;;;;;6.67;5.00;;;;;30.07;60.94;100798.88;5029901;28;46588;-80
2023/06/10 11:13:59;;;;;;;;;5.00;5.00;;;;;30.17;60.83;100804.59;5026188;28;45449;-81
2023/06/10 11:16:26;;;;;;;;;5.33;5.33;;;;;30.31;61.27;100801.75;5034124;28;45614;-80
2023/06/10 11:18:55;;;;;;;;;5.67;5.33;;;;;30.40;59.96;100797.47;5017709;28;45465;-77
2023/06/10 11:21:20;;;;;;;;;5.67;5.67;;;;;30.47;59.33;100796.94;5029240;28;45628;-82
2023/06/10 11:23:49;;;;;;;;;5.00;5.00;;;;;30.57;59.58;100794.38;5022920;28;45522;-80